createdAt,value
2022-09-22T04:00:32.644Z,0.00
2022-09-22T04:05:32.572Z,0.00
2022-09-22T04:10:32.520Z,0.00
2022-09-22T04:15:39.520Z,0.00
2022-09-22T04:20:32.411Z,0.00
2022-09-22T04:25:32.362Z,0.00
2022-09-22T04:30:32.395Z,0.00
2022-09-22T04:35:32.270Z,0.00
2022-09-22T04:40:32.271Z,0.00
2022-09-22T04:45:36.071Z,4.00
2022-09-22T04:50:33.088Z,8.00
2022-09-22T04:55:32.050Z,20.00
2022-09-22T05:00:31.983Z,44.00
2022-09-22T05:05:31.924Z,88.00
2022-09-22T05:10:31.871Z,156.00
2022-09-22T05:15:31.922Z,260.00
2022-09-22T05:20:31.765Z,404.00
2022-09-22T05:25:31.714Z,580.00
2022-09-22T05:30:31.664Z,780.00
2022-09-22T05:35:36.452Z,1008.00
2022-09-22T05:40:32.623Z,1244.00
2022-09-22T05:45:31.584Z,1836.00
2022-09-22T05:50:31.446Z,6980.00
2022-09-22T05:55:31.397Z,2128.00
2022-09-22T06:00:31.350Z,12384.00
2022-09-22T06:05:31.283Z,3084.00
2022-09-22T06:10:31.225Z,2976.00
2022-09-22T06:15:31.200Z,2908.00
2022-09-22T06:20:31.117Z,3076.00
2022-09-22T06:25:31.191Z,3472.00
2022-09-22T06:30:31.007Z,4992.00
2022-09-22T06:35:30.976Z,14816.00
2022-09-22T06:40:30.944Z,20224.00
2022-09-22T06:45:30.880Z,10560.00
2022-09-22T06:50:30.885Z,9168.00
2022-09-22T06:55:30.763Z,8740.00
2022-09-22T07:00:30.736Z,8556.00
2022-09-22T07:05:30.631Z,8352.00
2022-09-22T07:10:30.572Z,8072.00
2022-09-22T07:15:30.553Z,7652.00
2022-09-22T07:20:30.467Z,7220.00
2022-09-22T07:25:30.421Z,6120.00
2022-09-22T07:30:30.360Z,5416.00
2022-09-22T07:35:30.329Z,4864.00
2022-09-22T07:40:30.284Z,4820.00
2022-09-22T07:45:30.185Z,4700.00
2022-09-22T07:50:30.134Z,4976.00
2022-09-22T07:55:30.100Z,4964.00
2022-09-22T08:00:30.070Z,4920.00
2022-09-22T08:05:29.967Z,4920.00
2022-09-22T08:10:29.918Z,4900.00
2022-09-22T08:15:29.879Z,4888.00
2022-09-22T08:20:29.811Z,4880.00
2022-09-22T08:25:29.754Z,4864.00
2022-09-22T08:30:29.693Z,4864.00
2022-09-22T08:35:29.663Z,4876.00
2022-09-22T08:40:29.659Z,4924.00
2022-09-22T08:45:29.533Z,4940.00
2022-09-22T08:50:29.462Z,4968.00
2022-09-22T08:55:29.449Z,4988.00
2022-09-22T09:00:29.417Z,5024.00
2022-09-22T09:05:29.314Z,5040.00
2022-09-22T09:10:29.287Z,5076.00
2022-09-22T09:15:29.221Z,5116.00
2022-09-22T09:20:29.149Z,5152.00
2022-09-22T09:25:29.090Z,5168.00
2022-09-22T09:30:29.103Z,5116.00
2022-09-22T09:35:29.010Z,5128.00
2022-09-22T09:40:29.150Z,5220.00
2022-09-22T09:45:28.864Z,5312.00
2022-09-22T09:50:28.817Z,5360.00
2022-09-22T09:55:28.782Z,5332.00
2022-09-22T10:00:28.707Z,5284.00
2022-09-22T10:05:28.649Z,5272.00
2022-09-22T10:10:28.598Z,5312.00
2022-09-22T10:15:28.802Z,5332.00
2022-09-22T10:20:35.527Z,5348.00
2022-09-22T10:25:28.417Z,5336.00
2022-09-22T10:30:28.372Z,5360.00
2022-09-22T10:35:28.339Z,5424.00
2022-09-22T10:40:28.307Z,5388.00
2022-09-22T10:45:28.207Z,5448.00
2022-09-22T10:50:28.156Z,5416.00
2022-09-22T10:55:28.135Z,5440.00
2022-09-22T11:00:28.092Z,5444.00
2022-09-22T11:05:27.997Z,5436.00
2022-09-22T11:10:27.947Z,5472.00
2022-09-22T11:15:27.962Z,5412.00
2022-09-22T11:20:27.837Z,5416.00
2022-09-22T11:25:27.782Z,5464.00
2022-09-22T11:30:27.876Z,5496.00
2022-09-22T11:35:27.698Z,5448.00
2022-09-22T11:40:27.642Z,5492.00
2022-09-22T11:45:27.572Z,5480.00
2022-09-22T11:50:27.513Z,5444.00
2022-09-22T11:55:27.948Z,5480.00
2022-09-22T12:00:27.389Z,5436.00
2022-09-22T12:05:27.364Z,5440.00
2022-09-22T12:10:27.295Z,5460.00
2022-09-22T12:15:27.256Z,5444.00
2022-09-22T12:20:27.180Z,5384.00
2022-09-22T12:25:47.560Z,4880.00
2022-09-22T12:30:28.146Z,5388.00
2022-09-22T12:35:30.272Z,5424.00
2022-09-22T12:40:27.021Z,5376.00
2022-09-22T12:45:26.903Z,5292.00
2022-09-22T12:50:26.850Z,5336.00
2022-09-22T12:55:26.839Z,5180.00
2022-09-22T13:00:29.112Z,5304.00
2022-09-22T13:05:27.689Z,5292.00
2022-09-22T13:10:26.669Z,5304.00
2022-09-22T13:15:26.626Z,5260.00
2022-09-22T13:20:26.549Z,5248.00
2022-09-22T13:25:26.592Z,5196.00
2022-09-22T13:30:26.451Z,5044.00
2022-09-22T13:35:26.390Z,5252.00
2022-09-22T13:40:26.342Z,5260.00
2022-09-22T13:45:26.251Z,5000.00
2022-09-22T13:50:26.208Z,5156.00
2022-09-22T13:55:26.166Z,5164.00
2022-09-22T14:00:26.094Z,5144.00
2022-09-22T14:05:26.035Z,5092.00
2022-09-22T14:10:26.001Z,5020.00
2022-09-22T14:15:25.951Z,5064.00
2022-09-22T14:20:25.898Z,5012.00
2022-09-22T14:25:25.922Z,5004.00
2022-09-22T14:30:25.764Z,4944.00
2022-09-22T14:35:25.732Z,4896.00
2022-09-22T14:40:25.725Z,4796.00
2022-09-22T14:45:25.686Z,4772.00
2022-09-22T14:50:25.554Z,4712.00
2022-09-22T14:55:25.518Z,4696.00
2022-09-22T15:00:25.444Z,4604.00
2022-09-22T15:05:29.390Z,4456.00
2022-09-22T15:10:25.141Z,4500.00
2022-09-22T15:15:25.104Z,4408.00
2022-09-22T15:20:25.035Z,4228.00
2022-09-22T15:25:24.982Z,4076.00
2022-09-22T15:30:25.018Z,3836.00
2022-09-22T15:35:24.900Z,3416.00
2022-09-22T15:40:24.887Z,2684.00
2022-09-22T15:45:24.979Z,2512.00
2022-09-22T15:50:24.913Z,2440.00
2022-09-22T15:55:24.888Z,2464.00
2022-09-22T16:00:24.807Z,2536.00
2022-09-22T16:05:24.748Z,2744.00
2022-09-22T16:10:24.701Z,2860.00
2022-09-22T16:15:24.696Z,2644.00
2022-09-22T16:20:31.646Z,2444.00
2022-09-22T16:25:24.541Z,2148.00
2022-09-22T16:30:26.028Z,2052.00
2022-09-22T16:35:24.456Z,1740.00
2022-09-22T16:40:24.424Z,1556.00
2022-09-22T16:45:24.320Z,1348.00
2022-09-22T16:50:24.263Z,1172.00
2022-09-22T16:55:24.237Z,1012.00
2022-09-22T17:00:24.219Z,868.00
2022-09-22T17:05:24.111Z,736.00
2022-09-22T17:10:24.044Z,572.00
2022-09-22T17:15:24.010Z,412.00
2022-09-22T17:20:23.954Z,280.00
2022-09-22T17:25:23.892Z,180.00
2022-09-22T17:30:23.829Z,112.00
2022-09-22T17:35:23.790Z,64.00
2022-09-22T17:40:23.807Z,32.00
2022-09-22T17:45:23.653Z,16.00
2022-09-22T17:50:23.601Z,4.00
2022-09-22T17:55:23.557Z,4.00
2022-09-22T18:00:23.493Z,0.00
2022-09-22T18:05:23.424Z,0.00
2022-09-22T18:10:23.374Z,0.00
2022-09-22T18:15:23.333Z,0.00
2022-09-22T18:20:23.257Z,0.00
2022-09-22T18:25:23.240Z,0.00
2022-09-22T18:30:23.146Z,0.00
2022-09-22T18:35:23.113Z,0.00
2022-09-22T18:40:23.135Z,0.00
2022-09-22T18:45:22.964Z,0.00
2022-09-22T18:50:22.921Z,0.00
2022-09-22T18:55:22.882Z,0.00
2022-09-22T19:00:22.818Z,0.00
2022-09-22T19:05:22.758Z,0.00
2022-09-22T19:10:22.696Z,0.00
2022-09-22T19:15:22.660Z,0.00
2022-09-22T19:20:22.599Z,0.00
2022-09-22T19:25:22.546Z,0.00
2022-09-22T19:30:24.800Z,0.00
2022-09-22T19:35:22.475Z,0.00
2022-09-22T19:40:22.417Z,0.00
2022-09-22T19:45:22.314Z,0.00
2022-09-22T19:50:22.244Z,0.00
2022-09-22T19:55:22.232Z,0.00
2022-09-22T20:00:22.149Z,0.00
2022-09-22T20:05:22.102Z,0.00
2022-09-22T20:10:22.043Z,0.00
2022-09-22T20:15:22.019Z,0.00
2022-09-22T20:20:21.942Z,0.00
2022-09-22T20:25:21.883Z,0.00
2022-09-22T20:30:21.841Z,0.00
2022-09-22T20:35:22.153Z,0.00
2022-09-22T20:40:21.842Z,0.00
2022-09-22T20:45:21.669Z,0.00
2022-09-22T20:50:21.608Z,0.00
2022-09-22T20:55:21.584Z,0.00
2022-09-22T21:00:21.489Z,0.00
2022-09-22T21:05:21.452Z,0.00
2022-09-22T21:10:21.391Z,0.00
2022-09-22T21:15:21.363Z,0.00
2022-09-22T21:20:21.287Z,0.00
2022-09-22T21:25:21.234Z,0.00
2022-09-22T21:30:21.177Z,0.00
2022-09-22T21:35:21.335Z,0.00
2022-09-22T21:40:21.134Z,0.00
2022-09-22T21:45:21.023Z,0.00
2022-09-22T21:50:20.952Z,0.00
2022-09-22T21:55:20.929Z,0.00
2022-09-22T22:00:36.820Z,0.00
2022-09-22T22:05:21.801Z,0.00
2022-09-22T22:10:20.752Z,0.00
2022-09-22T22:15:20.714Z,0.00
2022-09-22T22:20:20.652Z,0.00
2022-09-22T22:25:27.632Z,0.00
2022-09-22T22:30:20.521Z,0.00
2022-09-22T22:35:20.501Z,0.00
2022-09-22T22:40:20.558Z,0.00
2022-09-22T22:45:20.371Z,0.00
2022-09-22T22:50:20.313Z,0.00
2022-09-22T22:55:20.279Z,0.00
2022-09-22T23:00:20.214Z,0.00
2022-09-22T23:05:20.240Z,0.00
2022-09-22T23:10:20.100Z,0.00
2022-09-22T23:15:20.069Z,0.00
2022-09-22T23:20:19.995Z,0.00
2022-09-22T23:25:19.938Z,0.00
